Main page
METAR-TAF:

METAR-TAF

Airports :

RAF Brize Norton

Brize Norton, England

latitude: 51-45N, longitude: 001-35W, elevation: 88 m

Current weather observation

The report was made 39 minutes ago, at 13:50 UTC
Wind 7 kt from the East
Temperature 22°C
Humidity 31%
Pressure 1032 hPa
Visibility 10 km or more
no clouds below 1500 m and no cumulonimbus

METAR: EGVN 281350Z 09007KT CAVOK 22/04 Q1032 NOSIG RMK BLU BLU

Time: 15:29 (14:29 UTC)

Forecast

The report was made 4 hours and 11 minutes ago, at 10:18 UTC
Forecast valid from 28 at 12 UTC to 29 at 12 UTC
Wind 7 kt from the East
Visibility 10 km or more
no clouds below 1500 m and no cumulonimbus

TAF: EGVN 281018Z 2812/2912 10007KT CAVOK

Weather observations and forecasts of more than 4000 airports (METAR and TAF reports).

The available stations are represented by yellow and red dots on the map.

Hover mouse over dot to see the name of the station.

Then click to see weather observations and forecasts.

To change the map : click on the green buttons with a black cross to zoom in, on the green button with a dash to zoom out, or on the green arrows for adjacent maps.


METAR-TAF: